Time;durP1;ratioP1;P1;durP2;ratioP2;P2;SDS_P1;SDS_P2;PMS_P1;PMS_P2;Temp;Humidity;BMP_temperature;BMP_pressure;BME280_temperature;BME280_humidity;BME280_pressure;Samples;Min_cycle;Max_cycle;Signal;HPM_P1;HPM_P2
2022/12/20 00:01:47;;;;;;;67.60;29.83;;;2.00;99.90;;;;;;5050403;28;20823;-69
2022/12/20 00:04:14;;;;;;;68.87;31.90;;;2.00;99.90;;;;;;5050893;28;20461;-69
2022/12/20 00:06:41;;;;;;;79.20;32.87;;;2.10;99.90;;;;;;5050385;28;20535;-69
2022/12/20 00:09:09;;;;;;;66.43;30.30;;;2.10;99.90;;;;;;5050977;28;20460;-69
2022/12/20 00:11:38;;;;;;;67.63;30.97;;;2.10;99.90;;;;;;5050002;28;20452;-69
2022/12/20 00:14:05;;;;;;;71.97;30.17;;;2.20;99.90;;;;;;5050637;28;20813;-69
2022/12/20 00:16:33;;;;;;;64.80;28.80;;;2.10;99.90;;;;;;5050232;28;20518;-69
2022/12/20 00:19:02;;;;;;;71.70;31.30;;;2.10;99.90;;;;;;5050766;28;20458;-69
2022/12/20 00:21:30;;;;;;;76.03;32.40;;;2.00;99.90;;;;;;5050524;28;20452;-70
2022/12/20 00:23:57;;;;;;;72.13;31.40;;;1.90;99.90;;;;;;5042735;28;20471;-69
2022/12/20 00:26:26;;;;;;;71.50;31.97;;;1.90;99.90;;;;;;5050478;28;20965;-69
2022/12/20 00:28:54;;;;;;;75.87;32.17;;;1.80;99.90;;;;;;5050047;28;20453;-69
2022/12/20 00:31:22;;;;;;;74.63;31.37;;;1.80;99.90;;;;;;5050562;28;20453;-69
2022/12/20 00:33:52;;;;;;;72.37;30.17;;;1.70;99.90;;;;;;5050156;28;20484;-69
2022/12/20 00:36:20;;;;;;;77.80;33.23;;;1.70;99.90;;;;;;5051935;28;20469;-69
2022/12/20 00:38:47;;;;;;;77.27;32.70;;;1.60;99.90;;;;;;5053808;28;20441;-69
2022/12/20 00:41:15;;;;;;;60.97;30.00;;;1.60;99.90;;;;;;5053330;28;20462;-70
2022/12/20 00:43:42;;;;;;;71.13;32.63;;;1.60;99.90;;;;;;5053864;28;20445;-70
2022/12/20 00:46:11;;;;;;;70.23;32.77;;;1.60;99.90;;;;;;5053990;28;20961;-70
2022/12/20 00:48:38;;;;;;;76.13;33.30;;;1.60;99.90;;;;;;5053567;28;20873;-68
2022/12/20 00:51:08;;;;;;;78.83;33.03;;;1.60;99.90;;;;;;5053781;28;20502;-68
2022/12/20 00:53:35;;;;;;;70.50;32.37;;;1.60;99.90;;;;;;5050455;28;20539;-69
2022/12/20 00:56:03;;;;;;;84.57;33.97;;;1.60;99.90;;;;;;5053819;28;20473;-69
2022/12/20 00:58:31;;;;;;;74.43;32.50;;;1.60;99.90;;;;;;5053377;28;20457;-68
2022/12/20 01:00:58;;;;;;;73.20;31.37;;;1.60;99.90;;;;;;5045903;28;20861;-69
2022/12/20 01:03:25;;;;;;;78.47;32.30;;;1.60;99.90;;;;;;5053473;28;20471;-69
2022/12/20 01:05:52;;;;;;;77.37;33.00;;;1.60;99.90;;;;;;5053576;28;21002;-69
2022/12/20 01:08:22;;;;;;;77.70;34.27;;;1.70;99.90;;;;;;5053294;28;20457;-69
2022/12/20 01:10:59;;;;;;;77.47;33.87;;;1.70;99.90;;;;;;5053634;28;20449;-69
2022/12/20 01:13:26;;;;;;;76.83;33.03;;;1.70;99.90;;;;;;5053010;28;20511;-69
2022/12/20 01:15:53;;;;;;;69.73;32.27;;;1.70;99.90;;;;;;5053009;28;20531;-69
2022/12/20 01:18:19;;;;;;;72.13;32.60;;;1.70;99.90;;;;;;5053240;28;20445;-69
2022/12/20 01:20:46;;;;;;;72.13;30.80;;;1.70;99.90;;;;;;5052917;28;20449;-69
2022/12/20 01:23:13;;;;;;;70.50;32.03;;;1.80;99.90;;;;;;5053329;28;20452;-69
2022/12/20 01:25:41;;;;;;;81.93;34.73;;;1.70;99.90;;;;;;5052999;28;20477;-69
2022/12/20 01:28:08;;;;;;;85.30;32.37;;;1.80;99.90;;;;;;5052837;28;20867;-69
2022/12/20 01:30:39;;;;;;;83.47;34.37;;;1.80;99.90;;;;;;5052816;28;20457;-69
2022/12/20 01:33:05;;;;;;;68.10;32.53;;;1.80;99.90;;;;;;5052638;28;20489;-69
2022/12/20 01:35:32;;;;;;;70.90;30.97;;;1.80;99.90;;;;;;5053100;28;20488;-69
2022/12/20 01:37:59;;;;;;;71.37;32.37;;;1.80;99.90;;;;;;5044942;28;20453;-69
2022/12/20 01:40:26;;;;;;;70.60;32.90;;;1.80;99.90;;;;;;5052813;28;20514;-69
2022/12/20 01:42:54;;;;;;;71.83;33.27;;;1.80;99.90;;;;;;5052573;28;20455;-69
2022/12/20 01:45:26;;;;;;;67.97;30.43;;;1.80;99.90;;;;;;5052617;28;20497;-69
2022/12/20 01:47:53;;;;;;;76.70;32.30;;;1.80;99.90;;;;;;5052799;28;20528;-70
2022/12/20 01:50:20;;;;;;;78.77;33.30;;;1.90;99.90;;;;;;5052839;28;20510;-69
2022/12/20 01:52:48;;;;;;;74.33;32.37;;;1.90;99.90;;;;;;5052073;28;20530;-69
2022/12/20 01:55:18;;;;;;;68.77;30.07;;;1.90;99.90;;;;;;5052636;28;20523;-70
2022/12/20 01:57:50;;;;;;;72.20;33.40;;;1.90;99.90;;;;;;5052241;28;20819;-69
2022/12/20 02:00:19;;;;;;;73.57;33.93;;;2.00;99.90;;;;;;5052788;28;20503;-69
2022/12/20 02:02:48;;;;;;;77.53;33.70;;;1.90;99.90;;;;;;5052230;28;20536;-69
2022/12/20 02:05:18;;;;;;;75.40;32.63;;;1.90;99.90;;;;;;5046441;28;20468;-69
2022/12/20 02:07:48;;;;;;;63.63;28.90;;;1.90;99.90;;;;;;5052235;28;20449;-69
2022/12/20 02:10:16;;;;;;;64.40;30.07;;;1.90;99.90;;;;;;5052035;28;20453;-70
2022/12/20 02:12:45;;;;;;;70.13;31.27;;;1.90;99.90;;;;;;5052320;28;20488;-69
2022/12/20 02:15:30;;;;;;;68.47;30.80;;;1.90;99.90;;;;;;5051825;28;21001;-69
2022/12/20 02:18:07;;;;;;;72.40;30.70;;;2.00;99.90;;;;;;5052165;28;20487;-69
2022/12/20 02:20:57;;;;;;;67.23;30.17;;;2.10;99.90;;;;;;5051068;28;20456;-69
2022/12/20 02:23:56;;;;;;;64.17;29.37;;;2.20;99.90;;;;;;5052197;28;20460;-69
2022/12/20 02:26:49;;;;;;;71.83;31.60;;;2.30;99.90;;;;;;5046859;28;20465;-69
2022/12/20 02:29:27;;;;;;;64.23;29.87;;;2.30;99.90;;;;;;5052030;28;20468;-69
2022/12/20 02:32:02;;;;;;;64.97;31.13;;;2.30;99.90;;;;;;5051967;28;20801;-69
2022/12/20 02:34:33;;;;;;;66.17;30.80;;;2.30;99.90;;;;;;5051513;28;21015;-69
2022/12/20 02:36:59;;;;;;;67.30;30.37;;;2.30;99.90;;;;;;5051759;28;20780;-69
2022/12/20 02:39:28;;;;;;;65.47;31.00;;;2.20;99.90;;;;;;5051174;28;20944;-69
2022/12/20 02:41:59;;;;;;;69.57;30.00;;;2.10;99.90;;;;;;5051565;28;20805;-70
2022/12/20 02:47:18;;;;;;;73.30;32.23;;;2.10;99.90;;;;;;5051689;28;20790;-70
2022/12/20 02:49:46;;;;;;;56.87;30.37;;;2.10;99.90;;;;;;5051579;28;20478;-69
2022/12/20 02:52:14;;;;;;;62.77;30.77;;;2.10;99.90;;;;;;5051548;28;21010;-70
2022/12/20 02:54:41;;;;;;;61.40;29.33;;;2.10;99.90;;;;;;5051042;28;20488;-69
2022/12/20 02:57:12;;;;;;;63.50;28.27;;;2.10;99.90;;;;;;5051642;28;20453;-69
2022/12/20 02:59:45;;;;;;;71.93;29.17;;;2.00;99.90;;;;;;5050984;28;20452;-69
2022/12/20 03:02:14;;;;;;;65.50;29.77;;;2.00;99.90;;;;;;5051620;28;20479;-69
2022/12/20 03:04:41;;;;;;;58.90;28.60;;;2.00;99.90;;;;;;5051168;28;20887;-70
2022/12/20 03:07:10;;;;;;;64.40;29.03;;;2.00;99.90;;;;;;5051343;28;20828;-69
2022/12/20 03:09:39;;;;;;;67.93;30.67;;;1.90;99.90;;;;;;5051267;28;20461;-69
2022/12/20 03:12:07;;;;;;;61.43;29.27;;;1.90;99.90;;;;;;5048870;28;20441;-69
2022/12/20 03:14:33;;;;;;;70.70;30.63;;;1.90;99.90;;;;;;5051055;28;20493;-69
2022/12/20 03:17:01;;;;;;;62.40;27.77;;;1.90;99.90;;;;;;5051093;28;20444;-69
2022/12/20 03:19:29;;;;;;;69.67;29.60;;;1.90;99.90;;;;;;5051159;28;20524;-69
2022/12/20 03:21:56;;;;;;;65.03;29.70;;;1.90;99.90;;;;;;5050854;28;20944;-69
2022/12/20 03:24:22;;;;;;;71.13;30.13;;;1.90;99.90;;;;;;5050703;28;20488;-69
2022/12/20 03:26:49;;;;;;;72.30;29.57;;;1.90;99.90;;;;;;5050569;28;20858;-70
2022/12/20 03:29:16;;;;;;;67.20;29.97;;;1.90;99.90;;;;;;5051035;28;20452;-69
2022/12/20 03:31:43;;;;;;;77.70;34.40;;;1.80;99.90;;;;;;5050973;28;20441;-69
2022/12/20 03:34:09;;;;;;;75.90;31.53;;;1.90;99.90;;;;;;5050908;28;20484;-70
2022/12/20 03:36:37;;;;;;;76.60;33.13;;;1.80;99.90;;;;;;5050857;28;20498;-70
2022/12/20 03:39:04;;;;;;;80.63;31.73;;;1.80;99.90;;;;;;5050422;28;20483;-69
2022/12/20 03:41:31;;;;;;;65.00;30.60;;;1.80;99.90;;;;;;5051070;28;20518;-70
2022/12/20 03:43:57;;;;;;;68.67;32.10;;;1.80;99.90;;;;;;5050003;28;20956;-70
2022/12/20 03:46:25;;;;;;;76.13;31.57;;;1.80;99.90;;;;;;5049661;28;20973;-69
2022/12/20 03:48:51;;;;;;;69.37;30.60;;;1.80;99.90;;;;;;5050697;28;20456;-70
2022/12/20 03:51:18;;;;;;;70.37;30.57;;;1.80;99.90;;;;;;5050788;28;20933;-69
2022/12/20 03:53:46;;;;;;;65.63;31.27;;;1.80;99.90;;;;;;5050528;28;20922;-69
2022/12/20 03:56:13;;;;;;;62.70;30.27;;;1.80;99.90;;;;;;5050548;28;20477;-70
2022/12/20 03:58:39;;;;;;;72.27;31.53;;;1.80;99.90;;;;;;5050921;28;20454;-70
2022/12/20 04:01:17;;;;;;;67.53;29.10;;;1.80;99.90;;;;;;5050673;28;20448;-69
2022/12/20 04:03:44;;;;;;;63.53;31.87;;;1.90;99.90;;;;;;5050806;28;20486;-69
2022/12/20 04:06:10;;;;;;;67.93;32.40;;;1.90;99.90;;;;;;5050284;28;20906;-69
2022/12/20 04:08:37;;;;;;;68.47;31.53;;;1.90;99.90;;;;;;5050855;28;20870;-69
2022/12/20 04:11:17;;;;;;;62.20;29.33;;;1.90;99.90;;;;;;5050999;28;20940;-69
2022/12/20 04:13:44;;;;;;;66.07;30.23;;;1.90;99.90;;;;;;5054509;28;20487;-69
2022/12/20 04:16:11;;;;;;;66.83;30.73;;;1.90;99.90;;;;;;5054184;28;20995;-69
2022/12/20 04:18:38;;;;;;;65.40;29.03;;;1.90;99.90;;;;;;5054311;28;20461;-70
2022/12/20 04:21:06;;;;;;;68.90;29.77;;;1.90;99.90;;;;;;5054401;28;20444;-69
2022/12/20 04:23:33;;;;;;;71.50;30.00;;;1.90;99.90;;;;;;5054569;28;20452;-69
2022/12/20 04:26:00;;;;;;;71.43;29.67;;;1.90;99.90;;;;;;5053947;28;20595;-70
2022/12/20 04:28:28;;;;;;;73.03;31.20;;;1.90;99.90;;;;;;5054124;28;20979;-69
2022/12/20 04:30:55;;;;;;;66.47;29.50;;;1.90;99.90;;;;;;5053974;28;20460;-69
2022/12/20 04:33:22;;;;;;;66.20;32.00;;;2.00;99.90;;;;;;5054282;28;21270;-70
2022/12/20 04:35:48;;;;;;;69.53;31.00;;;2.00;99.90;;;;;;5054002;28;20479;-69
2022/12/20 04:38:15;;;;;;;69.20;30.03;;;2.00;99.90;;;;;;5053944;28;20933;-70
2022/12/20 04:40:42;;;;;;;72.27;32.70;;;2.00;99.90;;;;;;5053339;28;20499;-69
2022/12/20 04:43:09;;;;;;;63.73;30.37;;;2.00;99.90;;;;;;5053836;28;20928;-70
2022/12/20 04:45:37;;;;;;;64.90;30.57;;;2.00;99.90;;;;;;5053622;28;21073;-69
2022/12/20 04:48:04;;;;;;;58.90;29.30;;;2.00;99.90;;;;;;5053582;28;20449;-70
2022/12/20 04:50:31;;;;;;;69.50;30.30;;;2.00;99.90;;;;;;5054162;28;20522;-70
2022/12/20 04:55:41;;;;;;;63.37;28.57;;;2.00;99.90;;;;;;5053537;28;20468;-70
2022/12/20 04:58:08;;;;;;;58.53;28.03;;;2.00;99.90;;;;;;5053561;28;21089;-69
2022/12/20 05:00:36;;;;;;;63.40;28.67;;;2.10;99.90;;;;;;5054124;28;20457;-69
2022/12/20 05:03:03;;;;;;;63.97;29.90;;;2.10;99.90;;;;;;5053480;28;20466;-70
2022/12/20 05:05:30;;;;;;;59.00;28.23;;;2.10;99.90;;;;;;5053375;28;20477;-70
2022/12/20 05:07:57;;;;;;;58.17;28.40;;;2.10;99.90;;;;;;5053129;28;20448;-70
2022/12/20 05:10:23;;;;;;;69.00;29.23;;;2.10;99.90;;;;;;5053218;28;20945;-70
2022/12/20 05:12:50;;;;;;;58.67;28.27;;;2.10;99.90;;;;;;5053291;28;20503;-70
2022/12/20 05:15:17;;;;;;;63.57;30.67;;;2.20;99.90;;;;;;5053278;28;20558;-70
2022/12/20 05:17:45;;;;;;;68.80;30.43;;;2.20;99.90;;;;;;5052907;28;20458;-70
2022/12/20 05:20:13;;;;;;;60.50;30.57;;;2.20;99.90;;;;;;5053382;28;20449;-69
2022/12/20 05:28:08;;;;;;;55.27;28.30;;;2.30;99.90;;;;;;5052737;28;20971;-70
2022/12/20 05:30:34;;;;;;;65.70;28.83;;;2.20;99.90;;;;;;5053304;28;20520;-70
2022/12/20 05:33:03;;;;;;;59.23;27.80;;;2.20;99.90;;;;;;5052472;28;20522;-70
2022/12/20 05:35:29;;;;;;;59.13;28.93;;;2.20;99.90;;;;;;5052656;28;20492;-70
2022/12/20 05:37:56;;;;;;;64.80;28.60;;;2.20;99.90;;;;;;5052224;28;20468;-69
2022/12/20 05:40:23;;;;;;;59.77;27.37;;;2.20;99.90;;;;;;5052205;28;20514;-70
2022/12/20 05:42:49;;;;;;;68.10;30.07;;;2.20;99.90;;;;;;5052325;28;20461;-70
2022/12/20 05:45:16;;;;;;;64.40;28.13;;;2.30;99.90;;;;;;5051458;28;20465;-70
2022/12/20 05:47:43;;;;;;;60.20;29.07;;;2.30;99.90;;;;;;5052108;28;20502;-70
2022/12/20 05:50:11;;;;;;;61.00;29.13;;;2.30;99.90;;;;;;5052035;28;20461;-70
2022/12/20 05:52:38;;;;;;;61.00;28.97;;;2.40;99.90;;;;;;5052423;28;20457;-70
2022/12/20 05:55:05;;;;;;;62.77;30.03;;;2.50;99.90;;;;;;5051582;28;20858;-69
2022/12/20 05:57:32;;;;;;;63.77;28.93;;;2.60;99.90;;;;;;5046882;28;20464;-69
2022/12/20 05:59:59;;;;;;;62.67;27.60;;;2.70;99.90;;;;;;5051950;28;20449;-70
2022/12/20 06:02:25;;;;;;;55.87;26.60;;;2.80;99.90;;;;;;5052001;28;20456;-70
2022/12/20 06:04:52;;;;;;;52.10;27.87;;;2.80;99.90;;;;;;5047598;28;20476;-70
2022/12/20 06:07:20;;;;;;;59.60;29.23;;;2.90;99.90;;;;;;5051432;28;20449;-70
2022/12/20 06:09:46;;;;;;;64.80;28.63;;;3.00;99.90;;;;;;5051563;28;20445;-69
2022/12/20 06:12:13;;;;;;;57.43;27.70;;;3.00;99.90;;;;;;5051871;28;20510;-70
2022/12/20 06:14:40;;;;;;;52.43;27.17;;;3.00;99.90;;;;;;5052045;28;20495;-70
2022/12/20 06:17:07;;;;;;;59.07;28.43;;;3.00;99.90;;;;;;5052007;28;20461;-70
2022/12/20 06:19:33;;;;;;;62.40;28.93;;;3.00;99.90;;;;;;5052389;28;20453;-69
2022/12/20 06:22:00;;;;;;;56.57;28.63;;;3.00;99.90;;;;;;5051582;28;20449;-70
2022/12/20 06:24:29;;;;;;;61.63;27.33;;;2.90;99.90;;;;;;5051827;28;20552;-70
2022/12/20 06:26:55;;;;;;;54.13;27.17;;;2.90;99.90;;;;;;5051957;28;20456;-70
2022/12/20 06:29:23;;;;;;;59.37;26.33;;;2.90;99.90;;;;;;5051861;28;20540;-69
2022/12/20 06:31:50;;;;;;;53.83;27.77;;;2.80;99.90;;;;;;5051676;28;20960;-69
2022/12/20 06:34:17;;;;;;;49.63;24.97;;;2.80;99.90;;;;;;5051018;28;20542;-69
2022/12/20 06:36:43;;;;;;;56.57;28.30;;;2.80;99.90;;;;;;5051878;28;20452;-69
2022/12/20 06:39:10;;;;;;;52.47;25.73;;;2.90;99.90;;;;;;5051415;28;20445;-69
2022/12/20 06:41:40;;;;;;;55.80;27.30;;;2.90;99.90;;;;;;5051997;28;20865;-70
2022/12/20 06:44:06;;;;;;;54.63;27.60;;;2.80;99.90;;;;;;5051458;28;20952;-69
2022/12/20 06:46:33;;;;;;;55.27;25.97;;;2.80;99.90;;;;;;5051710;28;20495;-70
2022/12/20 06:49:00;;;;;;;51.57;26.03;;;2.80;99.90;;;;;;5051417;28;20452;-70
2022/12/20 06:51:26;;;;;;;56.47;26.00;;;2.90;99.90;;;;;;5051554;28;20941;-70
2022/12/20 06:53:53;;;;;;;56.23;27.37;;;2.90;99.90;;;;;;5051371;28;20866;-69
2022/12/20 06:56:20;;;;;;;51.53;28.03;;;2.90;99.90;;;;;;5051771;28;20500;-69
2022/12/20 06:58:48;;;;;;;54.00;26.07;;;2.80;99.90;;;;;;5051428;28;20511;-69
2022/12/20 07:01:14;;;;;;;52.50;25.80;;;2.80;99.90;;;;;;5051625;28;20449;-68
2022/12/20 07:03:41;;;;;;;52.80;24.73;;;2.80;99.90;;;;;;5051342;28;20441;-68
2022/12/20 07:06:08;;;;;;;55.23;25.20;;;2.90;99.90;;;;;;5051020;28;20498;-68
2022/12/20 07:08:34;;;;;;;51.50;25.57;;;2.80;99.90;;;;;;5051343;28;20531;-69
2022/12/20 07:11:05;;;;;;;55.87;25.40;;;2.80;99.90;;;;;;5051292;28;20449;-68
2022/12/20 07:13:32;;;;;;;50.03;24.10;;;2.80;99.90;;;;;;5051282;28;20449;-69
2022/12/20 07:16:00;;;;;;;50.97;24.67;;;2.90;99.90;;;;;;5051100;28;20488;-69
2022/12/20 07:18:27;;;;;;;56.07;24.40;;;2.90;99.90;;;;;;5051105;28;20449;-69
2022/12/20 07:20:53;;;;;;;54.50;26.80;;;2.90;99.90;;;;;;5050348;28;20441;-69
2022/12/20 07:23:20;;;;;;;49.97;24.30;;;2.90;99.90;;;;;;5051451;28;20457;-69
2022/12/20 07:25:53;;;;;;;52.90;24.90;;;3.00;99.90;;;;;;5050983;28;20476;-69
2022/12/20 07:28:20;;;;;;;56.73;24.93;;;3.00;99.90;;;;;;5043510;28;20492;-69
2022/12/20 07:30:47;;;;;;;52.50;24.93;;;3.00;99.90;;;;;;5050774;28;20452;-69
2022/12/20 07:33:15;;;;;;;53.47;23.63;;;3.00;99.90;;;;;;5051127;28;20507;-68
2022/12/20 07:35:42;;;;;;;55.63;25.50;;;3.00;99.90;;;;;;5050955;28;20571;-68
2022/12/20 07:38:09;;;;;;;50.73;24.37;;;2.90;99.90;;;;;;5050906;28;20465;-68
2022/12/20 07:40:36;;;;;;;49.20;24.07;;;2.90;99.90;;;;;;5050890;28;20452;-68
2022/12/20 07:43:03;;;;;;;57.27;25.90;;;2.90;99.90;;;;;;5050857;28;20453;-68
2022/12/20 07:45:29;;;;;;;53.77;25.50;;;3.00;99.90;;;;;;5052378;28;20469;-69
2022/12/20 07:47:56;;;;;;;50.60;24.80;;;2.90;99.90;;;;;;5054920;28;20522;-68
2022/12/20 07:50:26;;;;;;;48.17;24.80;;;3.00;99.90;;;;;;5055066;28;20532;-68
2022/12/20 07:52:52;;;;;;;45.70;24.90;;;3.00;99.90;;;;;;5054791;28;20502;-68
2022/12/20 07:55:20;;;;;;;58.57;26.10;;;3.00;99.90;;;;;;5054676;28;21095;-68
2022/12/20 07:57:51;;;;;;;52.20;25.30;;;3.00;99.90;;;;;;5054670;28;20495;-68
2022/12/20 08:00:18;;;;;;;52.83;24.97;;;3.00;99.90;;;;;;5046857;28;20449;-69
2022/12/20 08:02:49;;;;;;;51.57;24.40;;;3.00;99.90;;;;;;5054973;28;20467;-69
2022/12/20 08:05:16;;;;;;;48.50;23.53;;;3.00;99.90;;;;;;5054424;28;20471;-69
2022/12/20 08:07:45;;;;;;;48.30;24.20;;;3.00;99.90;;;;;;5054488;28;20909;-69
2022/12/20 08:10:15;;;;;;;49.13;24.37;;;3.00;99.90;;;;;;5054692;28;20507;-69
2022/12/20 08:12:44;;;;;;;53.80;26.07;;;3.00;99.90;;;;;;5054839;28;20448;-68
2022/12/20 08:15:11;;;;;;;52.17;25.70;;;3.00;99.90;;;;;;5054333;28;20502;-69
2022/12/20 08:17:38;;;;;;;51.73;24.37;;;3.10;99.90;;;;;;5054585;28;20444;-69
2022/12/20 08:20:07;;;;;;;52.17;25.53;;;3.00;99.90;;;;;;5054237;28;20453;-70
2022/12/20 08:22:34;;;;;;;58.10;26.80;;;3.10;99.90;;;;;;5053958;28;20449;-70
2022/12/20 08:25:03;;;;;;;44.50;23.73;;;3.10;99.90;;;;;;5054027;28;20901;-69
2022/12/20 08:27:30;;;;;;;60.70;25.10;;;3.10;99.90;;;;;;5054477;28;20484;-69
2022/12/20 08:29:57;;;;;;;56.73;25.80;;;3.20;99.90;;;;;;5054076;28;20453;-69
2022/12/20 08:32:23;;;;;;;44.47;24.43;;;3.20;99.90;;;;;;5054628;28;20452;-69
2022/12/20 08:34:50;;;;;;;51.60;25.03;;;3.30;99.90;;;;;;5053971;28;20903;-69
2022/12/20 08:37:17;;;;;;;49.37;24.67;;;3.30;99.90;;;;;;5054016;28;20506;-69
2022/12/20 08:39:44;;;;;;;55.07;26.80;;;3.40;99.90;;;;;;5054301;28;20457;-69
2022/12/20 08:42:12;;;;;;;50.50;23.60;;;3.40;99.90;;;;;;5053897;28;20452;-69
2022/12/20 08:44:39;;;;;;;51.57;24.57;;;3.50;99.90;;;;;;5054254;28;20471;-70
2022/12/20 08:47:06;;;;;;;50.43;25.10;;;3.50;99.90;;;;;;5053494;28;20461;-69
2022/12/20 08:49:32;;;;;;;52.70;25.27;;;3.50;99.90;;;;;;5053864;28;20929;-69
2022/12/20 08:51:59;;;;;;;60.93;25.93;;;3.50;99.90;;;;;;5053711;28;20506;-69
2022/12/20 08:54:26;;;;;;;47.20;23.97;;;3.60;99.90;;;;;;5053933;28;20449;-69
2022/12/20 08:56:52;;;;;;;56.40;25.10;;;3.60;99.90;;;;;;5053011;28;20453;-69
2022/12/20 08:59:20;;;;;;;48.20;24.80;;;3.60;99.90;;;;;;5053776;28;20502;-70
2022/12/20 09:01:47;;;;;;;50.13;26.13;;;3.60;99.90;;;;;;5053525;28;20519;-69
2022/12/20 09:04:15;;;;;;;50.23;25.73;;;3.60;99.90;;;;;;5053364;28;20452;-69
2022/12/20 09:06:41;;;;;;;52.03;25.03;;;3.70;99.90;;;;;;5053543;28;20445;-69
2022/12/20 09:09:08;;;;;;;47.60;25.17;;;3.70;99.90;;;;;;5053547;28;20448;-69
2022/12/20 09:11:35;;;;;;;52.60;25.57;;;3.70;99.90;;;;;;5053358;28;20452;-69
2022/12/20 09:14:01;;;;;;;50.80;26.10;;;3.70;99.90;;;;;;5053471;28;20461;-69
2022/12/20 09:16:32;;;;;;;51.87;24.50;;;3.80;99.90;;;;;;5053046;28;20902;-69
2022/12/20 09:19:00;;;;;;;53.80;24.57;;;3.80;99.90;;;;;;5053322;28;20460;-69
2022/12/20 09:21:27;;;;;;;47.37;23.83;;;3.90;99.90;;;;;;5052782;28;20448;-69
2022/12/20 09:23:55;;;;;;;44.60;24.03;;;3.90;99.90;;;;;;5053301;28;20457;-69
2022/12/20 09:26:23;;;;;;;50.90;25.77;;;3.90;99.90;;;;;;5053190;28;20464;-69
2022/12/20 09:28:50;;;;;;;47.57;23.80;;;4.00;99.90;;;;;;5053036;28;20461;-69
2022/12/20 09:31:19;;;;;;;45.63;23.43;;;4.00;99.90;;;;;;5052857;28;20445;-69
2022/12/20 09:33:46;;;;;;;52.70;25.00;;;4.10;99.90;;;;;;5053268;28;20449;-69
2022/12/20 09:36:16;;;;;;;41.03;22.33;;;4.10;99.90;;;;;;5052889;28;20492;-69
2022/12/20 09:38:43;;;;;;;55.07;24.17;;;4.10;99.90;;;;;;5052724;28;20941;-69
2022/12/20 09:41:23;;;;;;;43.67;22.87;;;4.20;99.90;;;;;;5052575;28;20449;-69
2022/12/20 09:43:50;;;;;;;45.93;23.07;;;4.20;99.90;;;;;;5053057;28;20456;-69
2022/12/20 09:46:18;;;;;;;44.90;22.90;;;4.30;99.90;;;;;;5052808;28;20477;-69
2022/12/20 09:48:47;;;;;;;50.47;21.90;;;4.40;99.90;;;;;;5052595;28;20440;-69
2022/12/20 09:51:28;;;;;;;42.23;22.73;;;4.40;99.90;;;;;;5052670;28;20457;-69
2022/12/20 09:54:07;;;;;;;46.87;23.70;;;4.40;99.90;;;;;;5052516;28;20509;-69
2022/12/20 09:56:37;;;;;;;46.03;21.80;;;4.50;99.90;;;;;;5045987;28;20543;-69
2022/12/20 09:59:06;;;;;;;45.37;24.10;;;4.50;99.90;;;;;;5052530;28;20487;-69
2022/12/20 10:01:35;;;;;;;50.73;23.80;;;4.60;99.90;;;;;;5052483;28;20909;-69
2022/12/20 10:04:07;;;;;;;45.97;23.07;;;4.60;99.90;;;;;;5052072;28;20456;-69
2022/12/20 10:06:45;;;;;;;57.50;27.20;;;4.60;99.90;;;;;;5052773;28;20875;-69
2022/12/20 10:09:22;;;;;;;38.97;19.67;;;4.60;99.90;;;;;;5051604;28;20595;-69
2022/12/20 10:12:03;;;;;;;43.17;23.00;;;4.60;99.90;;;;;;5052364;28;20498;-69
2022/12/20 10:15:00;;;;;;;41.50;23.13;;;4.60;99.90;;;;;;5052003;28;20464;-69
2022/12/20 10:17:40;;;;;;;47.87;23.53;;;4.70;99.90;;;;;;5051560;28;20481;-69
2022/12/20 10:20:27;;;;;;;42.20;23.00;;;4.70;99.90;;;;;;5051970;28;20475;-69
2022/12/20 10:22:59;;;;;;;41.37;21.50;;;4.70;99.90;;;;;;5051992;28;20997;-69
2022/12/20 10:25:30;;;;;;;41.40;22.10;;;4.70;99.90;;;;;;5052416;28;21001;-69
2022/12/20 10:27:58;;;;;;;44.33;21.80;;;4.70;99.90;;;;;;5051943;28;20471;-69
2022/12/20 10:30:26;;;;;;;45.03;23.00;;;4.70;99.90;;;;;;5052185;28;20453;-69
2022/12/20 10:32:54;;;;;;;41.87;21.43;;;4.80;99.90;;;;;;5051883;28;20488;-69
2022/12/20 10:35:30;;;;;;;40.27;21.20;;;4.80;99.90;;;;;;5051893;28;20519;-69
2022/12/20 10:37:59;;;;;;;40.73;21.40;;;4.80;99.90;;;;;;5051969;28;20463;-69
2022/12/20 10:40:28;;;;;;;40.70;22.10;;;4.90;99.90;;;;;;5043776;28;20445;-69
2022/12/20 10:42:55;;;;;;;38.17;20.67;;;4.90;99.90;;;;;;5052135;28;20921;-69
2022/12/20 10:45:32;;;;;;;35.57;20.03;;;4.90;99.90;;;;;;5051320;28;20464;-69
2022/12/20 10:48:00;;;;;;;37.60;21.23;;;4.90;99.90;;;;;;5052032;28;20453;-69
2022/12/20 10:50:28;;;;;;;42.50;22.07;;;5.00;99.90;;;;;;5044194;28;20445;-69
2022/12/20 10:53:20;;;;;;;39.03;21.83;;;4.90;99.90;;;;;;5051780;28;20455;-69
2022/12/20 10:55:47;;;;;;;33.50;19.83;;;4.90;99.90;;;;;;5051459;28;20491;-69
2022/12/20 10:58:16;;;;;;;40.20;20.10;;;4.80;99.90;;;;;;5051710;28;20744;-69
2022/12/20 11:00:44;;;;;;;41.57;22.20;;;4.80;99.90;;;;;;5051547;28;20937;-69
2022/12/20 11:03:14;;;;;;;46.87;21.10;;;4.70;99.90;;;;;;5051540;28;20457;-69
2022/12/20 11:05:53;;;;;;;37.30;20.87;;;4.70;99.90;;;;;;5051437;28;20468;-69
2022/12/20 11:08:25;;;;;;;50.53;21.47;;;4.60;99.90;;;;;;5051091;28;20511;-69
2022/12/20 11:11:10;;;;;;;43.50;23.27;;;4.50;99.90;;;;;;5051551;28;20480;-69
2022/12/20 11:13:37;;;;;;;41.27;22.57;;;4.40;99.90;;;;;;5051331;28;20925;-69
2022/12/20 11:16:04;;;;;;;44.73;21.07;;;4.40;99.90;;;;;;5051083;28;20995;-69
2022/12/20 11:18:41;;;;;;;48.53;23.40;;;4.40;99.90;;;;;;5050980;28;20453;-69
2022/12/20 11:21:22;;;;;;;40.53;21.47;;;4.40;99.90;;;;;;5050874;28;20937;-69
2022/12/20 11:23:56;;;;;;;38.20;21.40;;;4.50;99.90;;;;;;5051192;28;20514;-69
2022/12/20 11:26:40;;;;;;;50.83;22.40;;;4.50;99.90;;;;;;5051043;28;20464;-69
2022/12/20 11:29:20;;;;;;;46.40;23.30;;;4.50;99.90;;;;;;5050911;28;20464;-69
2022/12/20 11:31:56;;;;;;;41.90;21.77;;;4.50;99.90;;;;;;5051087;28;20449;-69
2022/12/20 11:34:37;;;;;;;44.07;22.83;;;4.60;99.90;;;;;;5050783;28;20483;-69
2022/12/20 11:37:17;;;;;;;39.07;20.70;;;4.60;99.90;;;;;;5050565;28;20917;-69
2022/12/20 11:40:04;;;;;;;34.83;19.47;;;4.70;99.90;;;;;;5051105;28;20503;-69
2022/12/20 11:42:42;;;;;;;47.97;23.47;;;4.70;99.90;;;;;;5050873;28;20936;-69
2022/12/20 11:45:15;;;;;;;48.23;23.03;;;4.70;99.90;;;;;;5050803;28;20678;-69
2022/12/20 11:48:02;;;;;;;52.93;25.00;;;4.70;99.90;;;;;;5051132;28;20453;-69
2022/12/20 11:50:43;;;;;;;46.13;23.23;;;4.70;99.90;;;;;;5042911;28;20476;-69
2022/12/20 11:53:20;;;;;;;48.67;24.40;;;4.70;99.90;;;;;;5050773;28;20809;-69
2022/12/20 11:55:51;;;;;;;49.57;24.40;;;4.60;99.90;;;;;;5050592;28;20488;-69
2022/12/20 11:58:23;;;;;;;51.20;23.37;;;4.60;99.90;;;;;;5050807;28;20937;-69
2022/12/20 12:00:54;;;;;;;40.67;22.67;;;4.60;99.90;;;;;;5050927;28;20453;-69
2022/12/20 12:03:28;;;;;;;47.67;24.13;;;4.50;99.90;;;;;;5051208;28;20510;-69
2022/12/20 12:05:59;;;;;;;47.13;22.47;;;4.50;99.90;;;;;;5050595;28;20838;-69
2022/12/20 12:08:33;;;;;;;45.33;24.10;;;4.50;99.90;;;;;;5050499;28;20449;-69
2022/12/20 12:11:06;;;;;;;45.03;22.60;;;4.60;99.90;;;;;;5050558;28;21002;-69
2022/12/20 12:13:37;;;;;;;42.40;22.87;;;4.60;99.90;;;;;;5050888;28;20444;-69
2022/12/20 12:16:09;;;;;;;40.63;22.60;;;4.70;99.90;;;;;;5050656;28;20500;-69
2022/12/20 12:18:38;;;;;;;47.83;23.97;;;4.80;99.90;;;;;;5050476;28;20476;-69
2022/12/20 12:21:11;;;;;;;42.27;21.83;;;4.80;99.90;;;;;;5050100;28;20449;-69
2022/12/20 12:23:49;;;;;;;41.97;22.27;;;4.90;99.90;;;;;;5050891;28;20452;-69
2022/12/20 12:26:21;;;;;;;44.73;23.10;;;4.90;99.90;;;;;;5050346;28;20875;-69
2022/12/20 12:28:53;;;;;;;43.87;21.20;;;5.00;99.90;;;;;;5050286;28;20457;-69
2022/12/20 12:31:26;;;;;;;38.07;21.60;;;5.00;99.90;;;;;;5050439;28;20448;-69
2022/12/20 12:34:10;;;;;;;37.93;20.43;;;5.00;99.90;;;;;;5054423;28;20459;-69
2022/12/20 12:37:03;;;;;;;36.53;21.20;;;5.00;99.90;;;;;;5053980;28;20479;-69
2022/12/20 12:39:58;;;;;;;39.00;21.33;;;5.10;99.90;;;;;;5046902;28;20461;-69
2022/12/20 12:42:42;;;;;;;41.73;22.20;;;5.20;99.90;;;;;;5053783;28;20929;-69
2022/12/20 12:45:17;;;;;;;37.90;21.90;;;5.20;99.90;;;;;;5053605;28;20972;-69
2022/12/20 12:47:48;;;;;;;39.27;20.40;;;5.30;99.90;;;;;;5054214;28;20456;-69
2022/12/20 12:50:25;;;;;;;41.33;20.33;;;5.30;99.90;;;;;;5053805;28;20828;-69
2022/12/20 12:52:54;;;;;;;38.93;20.80;;;5.30;99.90;;;;;;5054100;28;20503;-69
2022/12/20 12:55:53;;;;;;;36.63;19.63;;;5.30;99.90;;;;;;5053520;28;20530;-70
2022/12/20 12:58:37;;;;;;;39.73;21.33;;;5.30;99.90;;;;;;5011550;28;20497;-69
2022/12/20 13:01:07;;;;;;;34.17;19.87;;;5.30;99.90;;;;;;5049290;28;20484;-69